Time;durP1;ratioP1;P1;durP2;ratioP2;P2;SDS_P1;SDS_P2;PMS_P1;PMS_P2;Temp;Humidity;BMP_temperature;BMP_pressure;BME280_temperature;BME280_humidity;BME280_pressure;Samples;Min_cycle;Max_cycle;Signal;HPM_P1;HPM_P2
2023/12/28 00:01:22;;;;;;;6.90;2.00;;;;;;;9.42;100.00;100619.44;4968050;28;20455;-85
2023/12/28 00:03:47;;;;;;;4.95;1.75;;;;;;;9.45;100.00;100625.50;4971815;28;20050;-85
2023/12/28 00:06:13;;;;;;;2.22;1.50;;;;;;;9.50;100.00;100630.63;4970613;28;20074;-85
2023/12/28 00:08:39;;;;;;;2.83;1.48;;;;;;;9.56;100.00;100638.34;4986279;28;20025;-85
2023/12/28 00:11:04;;;;;;;7.25;1.63;;;;;;;9.56;100.00;100624.69;4978941;28;20039;-85
2023/12/28 00:13:29;;;;;;;2.15;1.27;;;;;;;9.64;100.00;100643.19;4951618;28;20027;-85
2023/12/28 00:15:55;;;;;;;2.85;1.80;;;;;;;9.56;100.00;100641.94;4952517;28;20046;-85
2023/12/28 00:18:20;;;;;;;7.38;1.90;;;;;;;9.56;100.00;100639.22;4937013;28;20027;-86
2023/12/28 00:20:46;;;;;;;4.60;1.83;;;;;;;9.54;100.00;100643.03;4973295;28;20058;-85
2023/12/28 00:23:11;;;;;;;4.10;1.80;;;;;;;9.38;100.00;100638.78;4951870;28;20031;-85
2023/12/28 00:25:37;;;;;;;5.80;1.67;;;;;;;9.43;100.00;100663.03;4947893;28;20030;-85
2023/12/28 00:28:02;;;;;;;2.95;1.70;;;;;;;9.52;100.00;100655.97;4950351;28;20603;-86
2023/12/28 00:30:28;;;;;;;4.03;1.60;;;;;;;9.49;100.00;100658.94;4953107;28;20525;-86
2023/12/28 00:32:53;;;;;;;2.10;1.80;;;;;;;9.52;100.00;100658.69;4965185;28;20039;-85
2023/12/28 00:35:19;;;;;;;2.58;1.50;;;;;;;9.52;100.00;100664.16;4952646;28;20039;-85
2023/12/28 00:37:45;;;;;;;4.15;2.05;;;;;;;9.56;100.00;100663.81;4968984;28;20031;-86
2023/12/28 00:40:10;;;;;;;6.30;1.90;;;;;;;9.50;100.00;100657.97;4954067;28;20106;-85
2023/12/28 00:42:36;;;;;;;1.92;1.42;;;;;;;9.54;100.00;100675.84;4982406;28;20098;-85
2023/12/28 00:45:02;;;;;;;4.10;1.73;;;;;;;9.46;100.00;100673.72;4969978;28;20125;-84
2023/12/28 00:47:27;;;;;;;3.55;1.95;;;;;;;9.47;100.00;100680.91;4970371;28;20039;-85
2023/12/28 00:49:53;;;;;;;4.97;2.05;;;;;;;9.46;100.00;100675.56;4973944;28;20050;-85
2023/12/28 00:52:18;;;;;;;3.35;1.80;;;;;;;9.50;100.00;100679.81;4957325;28;20034;-85
2023/12/28 00:54:44;;;;;;;2.20;1.88;;;;;;;9.46;100.00;100679.19;4972838;28;20038;-86
2023/12/28 00:57:09;;;;;;;2.85;1.88;;;;;;;9.55;100.00;100686.66;4986678;28;20031;-86
2023/12/28 00:59:35;;;;;;;7.28;1.77;;;;;;;9.51;100.00;100678.81;4942162;28;20057;-85
2023/12/28 01:02:00;;;;;;;5.03;1.70;;;;;;;9.41;100.00;100669.59;4968987;28;20485;-85
2023/12/28 01:04:25;;;;;;;5.32;1.98;;;;;;;9.45;100.00;100691.09;4974031;28;20086;-85
2023/12/28 01:06:52;;;;;;;1.92;1.63;;;;;;;9.43;100.00;100673.06;4973712;28;20104;-84
2023/12/28 01:09:17;;;;;;;7.10;2.08;;;;;;;9.44;100.00;100675.69;4972773;28;20077;-85
2023/12/28 01:11:42;;;;;;;6.80;2.45;;;;;;;9.44;100.00;100681.16;4946309;28;20035;-85
2023/12/28 01:14:08;;;;;;;2.20;1.70;;;;;;;9.35;100.00;100685.47;4958132;28;20034;-87
2023/12/28 01:16:33;;;;;;;2.88;2.10;;;;;;;9.38;100.00;100685.25;4968369;28;20031;-88
2023/12/28 01:18:59;;;;;;;3.83;2.05;;;;;;;9.41;100.00;100691.44;4986080;28;20026;-88
2023/12/28 01:21:24;;;;;;;4.88;2.15;;;;;;;9.43;100.00;100704.03;4978205;28;20031;-87
2023/12/28 01:23:51;;;;;;;4.38;2.13;;;;;;;9.43;100.00;100697.66;4974283;28;20098;-87
2023/12/28 01:26:19;;;;;;;5.35;2.17;;;;;;;9.48;100.00;100700.94;4978501;28;20107;-88
2023/12/28 01:28:45;;;;;;;6.50;2.30;;;;;;;9.46;100.00;100695.59;4979032;28;20078;-87
2023/12/28 01:31:10;;;;;;;5.07;1.85;;;;;;;9.46;100.00;100711.09;4971563;28;20112;-88
2023/12/28 01:33:36;;;;;;;3.60;1.88;;;;;;;9.48;100.00;100703.66;4962052;28;20027;-88
2023/12/28 01:36:01;;;;;;;2.83;2.08;;;;;;;9.53;100.00;100709.66;4973604;28;20030;-87
2023/12/28 01:38:27;;;;;;;2.97;2.10;;;;;;;9.50;100.00;100713.47;4957782;28;20495;-87
2023/12/28 01:40:53;;;;;;;3.70;2.08;;;;;;;9.49;100.00;100716.31;4986132;28;20045;-86
2023/12/28 01:43:18;;;;;;;4.18;2.40;;;;;;;9.48;100.00;100728.28;4975078;28;20039;-88
2023/12/28 01:45:45;;;;;;;9.05;2.40;;;;;;;9.45;100.00;100721.16;4979104;28;20043;-88
2023/12/28 01:48:11;;;;;;;4.93;2.15;;;;;;;9.44;100.00;100722.13;4959639;28;20059;-88
2023/12/28 01:50:37;;;;;;;5.55;2.30;;;;;;;9.39;100.00;100727.09;4998768;28;20026;-87
2023/12/28 01:53:03;;;;;;;3.20;1.95;;;;;;;9.39;100.00;100721.63;4978129;28;20030;-88
2023/12/28 01:55:30;;;;;;;4.38;2.13;;;;;;;9.38;100.00;100730.84;4958080;28;20031;-88
2023/12/28 01:57:56;;;;;;;4.50;2.42;;;;;;;9.33;100.00;100728.44;4992279;28;20026;-88
2023/12/28 02:00:22;;;;;;;5.90;2.00;;;;;;;9.37;100.00;100720.88;4963006;28;20510;-85
2023/12/28 02:02:48;;;;;;;6.20;2.40;;;;;;;9.37;100.00;100720.88;4974503;28;20054;-88
2023/12/28 02:05:14;;;;;;;4.63;2.15;;;;;;;9.33;100.00;100720.25;4965770;28;20393;-88
2023/12/28 02:07:40;;;;;;;4.43;2.20;;;;;;;9.32;100.00;100725.81;4970810;28;20038;-88
2023/12/28 02:10:06;;;;;;;6.40;2.20;;;;;;;9.29;100.00;100732.38;4989887;28;20026;-88
2023/12/28 02:12:32;;;;;;;5.50;2.30;;;;;;;9.23;100.00;100732.88;4977245;28;20043;-88
2023/12/28 02:14:58;;;;;;;3.83;2.28;;;;;;;9.28;100.00;100733.38;5001570;28;20031;-88
2023/12/28 02:17:31;;;;;;;9.68;2.42;;;;;;;9.25;100.00;100733.63;4977184;28;20288;-88
2023/12/28 02:19:58;;;;;;;2.85;2.20;;;;;;;9.23;100.00;100738.34;4977745;28;20053;-88
2023/12/28 02:22:25;;;;;;;5.57;2.30;;;;;;;9.22;100.00;100720.19;4973630;28;20563;-88
2023/12/28 02:25:11;;;;;;;3.70;2.38;;;;;;;9.17;100.00;100720.53;4974379;28;20029;-88
2023/12/28 02:27:48;;;;;;;3.63;1.90;;;;;;;9.22;100.00;100728.38;4993683;28;20030;-88
2023/12/28 02:30:22;;;;;;;3.95;2.00;;;;;;;9.15;100.00;100725.25;4991260;28;20498;-88
2023/12/28 02:33:09;;;;;;;6.75;2.28;;;;;;;9.08;100.00;100726.66;4976720;28;20125;-88
2023/12/28 02:35:34;;;;;;;3.90;2.28;;;;;;;9.19;100.00;100714.94;4995972;28;20492;-87
2023/12/28 02:38:08;;;;;;;4.68;1.90;;;;;;;9.17;100.00;100717.81;4976538;28;20029;-87
2023/12/28 02:40:38;;;;;;;4.63;2.00;;;;;;;9.16;100.00;100717.91;4980484;28;20409;-88
2023/12/28 02:43:05;;;;;;;5.63;2.30;;;;;;;9.12;100.00;100713.69;4997669;28;20042;-88
2023/12/28 02:45:30;;;;;;;5.00;2.03;;;;;;;9.16;100.00;100707.84;4974708;28;20031;-88
2023/12/28 02:47:56;;;;;;;4.45;2.30;;;;;;;9.12;100.00;100713.69;4959337;28;20407;-88
2023/12/28 02:50:21;;;;;;;7.72;3.38;;;;;;;9.06;100.00;100712.28;4975820;28;20039;-88
2023/12/28 02:52:47;;;;;;;3.53;2.30;;;;;;;9.11;100.00;100717.38;4957891;28;20027;-87
2023/12/28 02:55:12;;;;;;;5.00;2.17;;;;;;;9.09;100.00;100717.50;4960154;28;20467;-87
2023/12/28 02:57:38;;;;;;;5.05;2.47;;;;;;;9.04;100.00;100711.53;4991103;28;20034;-87
2023/12/28 03:00:08;;;;;;;7.03;2.35;;;;;;;9.07;100.00;100707.66;4967564;28;20554;-87
2023/12/28 03:02:36;;;;;;;6.93;2.13;;;;;;;9.07;100.00;100697.63;4954581;28;20038;-87
2023/12/28 03:05:01;;;;;;;8.88;2.50;;;;;;;9.07;100.00;100692.19;4965236;28;20031;-87
2023/12/28 03:07:27;;;;;;;4.55;2.58;;;;;;;9.09;100.00;100694.78;4955147;28;20082;-87
2023/12/28 03:09:52;;;;;;;6.22;2.65;;;;;;;9.04;100.00;100699.75;4980176;28;20098;-88
2023/12/28 03:12:18;;;;;;;6.25;2.45;;;;;;;9.08;100.00;100704.81;4980165;28;20042;-88
2023/12/28 03:14:43;;;;;;;4.20;2.33;;;;;;;9.04;100.00;100710.66;4965392;28;20042;-87
2023/12/28 03:17:09;;;;;;;5.10;2.40;;;;;;;9.16;100.00;100707.00;4962824;28;20061;-90
2023/12/28 03:19:36;;;;;;;3.97;2.53;;;;;;;9.19;100.00;100712.22;4960617;28;20042;-88
2023/12/28 03:22:01;;;;;;;5.72;2.33;;;;;;;9.26;100.00;100715.34;4960643;28;20027;-89
2023/12/28 03:24:26;;;;;;;7.30;2.45;;;;;;;9.23;100.00;100715.59;4966102;28;20062;-87
2023/12/28 03:26:52;;;;;;;2.95;2.30;;;;;;;9.20;100.00;100714.84;4961149;28;20027;-88
2023/12/28 03:29:17;;;;;;;6.32;2.75;;;;;;;9.19;100.00;100713.09;4974177;28;20113;-87
2023/12/28 03:31:43;;;;;;;5.65;2.42;;;;;;;9.26;100.00;100705.28;4966661;28;20037;-87
2023/12/28 03:34:08;;;;;;;4.53;2.28;;;;;;;9.27;100.00;100712.50;4969845;28;20037;-83
2023/12/28 03:36:33;;;;;;;7.13;2.80;;;;;;;9.17;100.00;100700.53;4989099;28;20041;-83
2023/12/28 03:38:59;;;;;;;6.50;2.70;;;;;;;9.17;100.00;100708.75;4942041;28;20039;-83
2023/12/28 03:41:24;;;;;;;8.85;2.75;;;;;;;9.14;100.00;100698.91;4970099;28;20045;-83
2023/12/28 03:43:50;;;;;;;3.75;2.25;;;;;;;9.17;100.00;100695.09;4949748;28;20039;-83
2023/12/28 03:46:15;;;;;;;6.90;2.45;;;;;;;9.16;100.00;100712.44;4972507;28;20457;-82
2023/12/28 03:48:40;;;;;;;6.50;2.08;;;;;;;9.20;100.00;100711.25;4952513;28;20445;-83
2023/12/28 03:51:06;;;;;;;7.72;2.78;;;;;;;9.12;100.00;100720.00;4970247;28;20026;-84
2023/12/28 03:53:32;;;;;;;4.22;2.25;;;;;;;9.16;100.00;100718.78;4986459;28;20035;-84
2023/12/28 03:55:59;;;;;;;6.00;2.17;;;;;;;9.09;100.00;100722.09;4971246;28;20054;-84
2023/12/28 03:58:24;;;;;;;6.32;2.20;;;;;;;9.22;100.00;100719.31;4980927;28;20046;-84
2023/12/28 04:00:50;;;;;;;8.63;2.20;;;;;;;9.21;100.00;100715.69;4969383;28;20030;-84
2023/12/28 04:03:15;;;;;;;5.63;2.22;;;;;;;9.27;100.00;100717.97;4986315;28;20027;-84
2023/12/28 04:05:42;;;;;;;4.70;2.05;;;;;;;9.28;100.00;100716.09;4951364;28;20026;-84
2023/12/28 04:08:08;;;;;;;6.40;2.00;;;;;;;9.20;100.00;100720.31;4971591;28;20027;-84
2023/12/28 04:10:33;;;;;;;4.78;2.10;;;;;;;9.28;100.00;100716.09;4970599;28;20500;-84
2023/12/28 04:12:59;;;;;;;6.55;2.40;;;;;;;9.23;100.00;100719.22;4956746;28;20039;-84
2023/12/28 04:15:28;;;;;;;10.25;2.78;;;;;;;9.20;100.00;100711.25;4965793;28;20030;-83
2023/12/28 04:17:54;;;;;;;7.72;2.38;;;;;;;9.19;100.00;100726.75;4969753;28;20034;-85
2023/12/28 04:20:19;;;;;;;4.78;2.22;;;;;;;9.18;100.00;100724.13;4971550;28;20081;-85
2023/12/28 04:22:45;;;;;;;9.35;2.30;;;;;;;9.14;100.00;100723.50;4952437;28;20031;-84
2023/12/28 04:25:10;;;;;;;6.53;2.13;;;;;;;9.21;100.00;100721.16;4958576;28;20469;-85
2023/12/28 04:27:37;;;;;;;9.02;2.45;;;;;;;9.17;100.00;100712.34;4955672;28;20041;-84
2023/12/28 04:30:05;;;;;;;8.10;2.00;;;;;;;9.26;100.00;100720.81;4982776;28;20035;-85
2023/12/28 04:32:31;;;;;;;6.05;2.13;;;;;;;9.29;100.00;100715.13;4953552;28;20054;-85
2023/12/28 04:34:56;;;;;;;4.55;2.28;;;;;;;9.26;100.00;100713.47;4970151;28;20118;-85
2023/12/28 04:37:21;;;;;;;6.35;2.20;;;;;;;9.25;100.00;100711.75;4953216;28;20046;-84
2023/12/28 04:39:47;;;;;;;8.15;2.17;;;;;;;9.26;100.00;100698.97;4986970;28;20045;-83
2023/12/28 04:42:12;;;;;;;4.45;2.13;;;;;;;9.31;100.00;100694.00;4986391;28;20061;-83
2023/12/28 04:44:38;;;;;;;5.97;1.90;;;;;;;9.28;100.00;100700.59;4949128;28;20070;-83
2023/12/28 04:47:04;;;;;;;9.05;2.35;;;;;;;9.32;100.00;100693.03;4966939;28;20142;-83
2023/12/28 04:49:30;;;;;;;10.18;2.40;;;;;;;9.21;100.00;100696.56;4975622;28;20031;-83
2023/12/28 04:51:56;;;;;;;8.48;2.13;;;;;;;9.19;100.00;100699.41;4952103;28;20035;-83
2023/12/28 04:54:22;;;;;;;7.90;2.00;;;;;;;9.34;100.00;100702.84;4967470;28;20041;-83
2023/12/28 04:56:47;;;;;;;12.45;1.95;;;;;;;9.37;100.00;100702.63;4958245;28;20094;-84
2023/12/28 04:59:13;;;;;;;7.22;2.15;;;;;;;9.33;100.00;100701.13;4969458;28;20432;-84
2023/12/28 05:01:42;;;;;;;5.60;2.33;;;;;;;9.30;100.00;100706.81;4968430;28;20054;-83
2023/12/28 05:04:08;;;;;;;5.20;2.05;;;;;;;9.38;100.00;100709.84;4966712;28;20031;-84
2023/12/28 05:06:33;;;;;;;6.70;3.13;;;;;;;9.29;100.00;100718.72;4967968;28;20360;-84
2023/12/28 05:08:58;;;;;;;9.65;2.00;;;;;;;9.27;100.00;100726.16;4975021;28;20393;-84
2023/12/28 05:11:24;;;;;;;8.15;2.00;;;;;;;9.34;100.00;100732.91;4966581;28;20046;-85
2023/12/28 05:13:49;;;;;;;14.73;3.83;;;;;;;9.32;100.00;100736.75;4952480;28;20055;-84
2023/12/28 05:16:15;;;;;;;7.28;2.20;;;;;;;9.36;100.00;100744.59;4982164;28;20038;-84
2023/12/28 05:18:40;;;;;;;4.82;1.60;;;;;;;9.37;100.00;100745.47;4934574;28;20058;-84
2023/12/28 05:21:05;;;;;;;10.70;1.92;;;;;;;9.40;100.00;100739.78;4953498;28;20393;-85
2023/12/28 05:23:31;;;;;;;7.50;2.30;;;;;;;9.37;100.00;100757.25;4954666;28;20027;-85
2023/12/28 05:25:56;;;;;;;5.32;2.08;;;;;;;9.38;100.00;100753.56;4951231;28;20409;-84
2023/12/28 05:28:22;;;;;;;6.15;1.90;;;;;;;9.38;100.00;100747.22;4957910;28;20052;-85
2023/12/28 05:30:47;;;;;;;8.23;1.73;;;;;;;9.47;100.00;100751.09;4987115;28;20120;-84
2023/12/28 05:33:12;;;;;;;9.38;2.35;;;;;;;9.45;100.00;100766.75;4978103;28;20544;-84
2023/12/28 05:35:38;;;;;;;8.50;1.65;;;;;;;9.46;100.00;100760.28;4972656;28;20042;-84
2023/12/28 05:38:04;;;;;;;11.90;2.10;;;;;;;9.49;100.00;100760.06;4974388;28;20460;-84
2023/12/28 05:40:30;;;;;;;8.32;1.58;;;;;;;9.39;100.00;100748.94;4973870;28;20034;-84
2023/12/28 05:42:55;;;;;;;13.00;2.10;;;;;;;9.44;100.00;100754.94;4969471;28;20457;-85
2023/12/28 05:45:21;;;;;;;6.82;1.95;;;;;;;9.42;100.00;100756.06;4971810;28;20113;-84
2023/12/28 05:47:46;;;;;;;10.55;1.63;;;;;;;9.41;100.00;100749.69;4986799;28;20035;-84
2023/12/28 05:50:12;;;;;;;7.05;1.27;;;;;;;9.41;100.00;100741.50;4965658;28;20031;-84
2023/12/28 05:52:37;;;;;;;8.40;2.25;;;;;;;9.42;100.00;100743.25;4955396;28;20510;-87
2023/12/28 05:55:04;;;;;;;5.18;1.83;;;;;;;9.37;100.00;100737.28;4987529;28;20452;-89
2023/12/28 05:57:30;;;;;;;7.72;1.70;;;;;;;9.36;100.00;100728.22;4964501;28;20030;-89
2023/12/28 05:59:57;;;;;;;9.32;1.70;;;;;;;9.34;100.00;100729.31;4953043;28;20054;-88
2023/12/28 06:02:22;;;;;;;7.35;1.58;;;;;;;9.36;100.00;100736.41;4984955;28;20084;-87
2023/12/28 06:04:48;;;;;;;11.55;1.83;;;;;;;9.34;100.00;100751.16;4998716;28;20477;-88
2023/12/28 06:07:13;;;;;;;9.98;1.65;;;;;;;9.37;100.00;100738.13;4973075;28;20077;-87
2023/12/28 06:09:39;;;;;;;8.38;1.90;;;;;;;9.36;100.00;100741.88;4966527;28;20388;-88
2023/12/28 06:12:05;;;;;;;11.23;1.92;;;;;;;9.33;100.00;100744.84;4976349;28;20046;-87
2023/12/28 06:14:31;;;;;;;10.93;1.52;;;;;;;9.41;100.00;100743.38;4968124;28;20049;-87
2023/12/28 06:16:56;;;;;;;7.55;1.33;;;;;;;9.41;100.00;100748.84;4958119;28;20031;-87
2023/12/28 06:19:22;;;;;;;15.52;2.47;;;;;;;9.40;100.00;100760.78;4984242;28;20027;-88
2023/12/28 06:21:48;;;;;;;19.17;2.55;;;;;;;9.35;100.00;100761.97;4960836;28;20023;-88
2023/12/28 06:24:13;;;;;;;5.80;1.52;;;;;;;9.31;100.00;100762.31;4985830;28;20030;-89
2023/12/28 06:26:43;;;;;;;7.63;1.48;;;;;;;9.34;100.00;100759.34;4964522;28;20030;-88
2023/12/28 06:29:09;;;;;;;16.10;2.13;;;;;;;9.28;100.00;100778.94;4982848;28;20023;-88
2023/12/28 06:31:36;;;;;;;9.98;2.05;;;;;;;9.30;100.00;100780.59;4973485;28;20086;-88
2023/12/28 06:34:05;;;;;;;8.20;1.75;;;;;;;9.27;100.00;100779.94;4990044;28;20034;-88
2023/12/28 06:36:31;;;;;;;16.60;2.10;;;;;;;9.37;100.00;100784.59;4966493;28;20058;-86
2023/12/28 06:38:57;;;;;;;7.22;1.35;;;;;;;9.37;100.00;100784.59;4958920;28;20121;-87
2023/12/28 06:41:25;;;;;;;15.93;2.00;;;;;;;9.40;100.00;100780.75;4974261;28;20441;-86
2023/12/28 06:43:50;;;;;;;13.85;1.95;;;;;;;9.36;100.00;100777.41;4963085;28;20413;-86
2023/12/28 06:46:15;;;;;;;15.30;1.67;;;;;;;9.46;100.00;100771.22;4971673;28;20031;-87
2023/12/28 06:48:41;;;;;;;11.98;1.70;;;;;;;9.47;100.00;100779.31;4967064;28;20488;-88
2023/12/28 06:51:07;;;;;;;14.35;2.03;;;;;;;9.53;100.00;100778.84;4945536;28;20030;-84
2023/12/28 06:53:32;;;;;;;9.77;2.55;;;;;;;9.51;100.00;100771.72;4976715;28;20027;-89
2023/12/28 06:55:58;;;;;;;17.30;1.55;;;;;;;9.49;100.00;100771.84;4961650;28;20057;-88
2023/12/28 06:58:23;;;;;;;8.80;1.67;;;;;;;9.59;100.00;100776.63;4964845;28;20126;-93
2023/12/28 07:00:49;;;;;;;19.58;2.00;;;;;;;9.48;100.00;100777.47;4971647;28;20027;-91
2023/12/28 07:03:14;;;;;;;18.20;2.05;;;;;;;9.46;100.00;100783.03;4962770;28;20026;-84
2023/12/28 07:05:40;;;;;;;15.18;1.80;;;;;;;9.61;100.00;100791.03;4964630;28;20488;-84
2023/12/28 07:08:05;;;;;;;9.68;1.73;;;;;;;9.82;100.00;100785.78;4940544;28;20516;-82
2023/12/28 07:10:31;;;;;;;17.13;1.58;;;;;;;9.82;100.00;100786.69;4970280;28;20039;-81
2023/12/28 07:12:56;;;;;;;22.30;2.03;;;;;;;9.81;100.00;100778.59;4954589;28;20074;-82
2023/12/28 07:15:22;;;;;;;11.48;1.48;;;;;;;9.81;100.00;100793.13;4969740;28;20125;-81
2023/12/28 07:17:47;;;;;;;16.90;1.90;;;;;;;9.74;100.00;100795.47;4956788;28;20038;-83
2023/12/28 07:20:13;;;;;;;7.53;1.13;;;;;;;9.81;100.00;100792.28;4956740;28;20034;-81
2023/12/28 07:22:38;;;;;;;16.35;1.83;;;;;;;9.78;100.00;100806.19;4966378;28;20038;-82
2023/12/28 07:25:07;;;;;;;16.15;2.35;;;;;;;9.78;100.00;100811.63;4969335;28;20161;-82
2023/12/28 07:27:34;;;;;;;9.80;1.55;;;;;;;9.69;100.00;100808.63;4984329;28;20418;-82
2023/12/28 07:30:00;;;;;;;11.85;1.75;;;;;;;9.70;100.00;100799.41;4968053;28;20031;-84
2023/12/28 07:32:25;;;;;;;14.10;2.20;;;;;;;9.69;100.00;100813.19;4977687;28;20113;-84
2023/12/28 07:34:54;;;;;;;15.73;1.80;;;;;;;9.78;100.00;100812.50;4941136;28;20035;-81
2023/12/28 07:37:20;;;;;;;15.52;2.03;;;;;;;9.72;100.00;100816.59;4955514;28;20042;-84
2023/12/28 07:39:46;;;;;;;20.88;3.58;;;;;;;9.66;100.00;100814.31;4970062;28;20031;-83
2023/12/28 07:42:12;;;;;;;18.45;1.50;;;;;;;9.71;100.00;100825.78;4938999;28;20046;-85
2023/12/28 07:44:37;;;;;;;12.48;1.50;;;;;;;9.62;100.00;100826.47;4938846;28;20521;-83
2023/12/28 07:47:03;;;;;;;13.75;1.73;;;;;;;9.63;100.00;100810.94;4937777;29;20038;-84
2023/12/28 07:49:30;;;;;;;13.38;1.85;;;;;;;9.52;100.00;100825.41;4938014;29;20038;-84
2023/12/28 07:51:56;;;;;;;12.85;1.38;;;;;;;9.51;100.00;100834.59;4952001;28;20043;-85
2023/12/28 07:54:21;;;;;;;12.88;1.70;;;;;;;9.48;100.00;100848.53;4935241;28;20035;-85
2023/12/28 07:56:46;;;;;;;14.75;2.13;;;;;;;9.52;100.00;100850.88;4938587;28;20038;-89
2023/12/28 07:59:12;;;;;;;23.90;2.53;;;;;;;9.48;100.00;100845.78;4941430;28;20027;-85
2023/12/28 08:01:37;;;;;;;14.10;1.90;;;;;;;9.42;100.00;100855.28;4919445;28;20035;-84
2023/12/28 08:04:03;;;;;;;15.32;1.92;;;;;;;9.46;100.00;100855.94;4962219;28;20034;-84
2023/12/28 08:06:32;;;;;;;8.80;1.48;;;;;;;9.47;100.00;100861.28;4919901;28;20382;-85
2023/12/28 08:08:59;;;;;;;16.15;2.30;;;;;;;9.47;100.00;100857.69;4966313;28;20110;-90
2023/12/28 08:11:24;;;;;;;12.27;2.38;;;;;;;9.54;100.00;100861.69;4946740;28;20109;-82
2023/12/28 08:13:50;;;;;;;16.30;2.70;;;;;;;9.48;100.00;100864.91;4967808;28;20066;-85
2023/12/28 08:16:15;;;;;;;11.15;1.65;;;;;;;9.56;100.00;100873.41;4951723;28;20058;-84
2023/12/28 08:18:41;;;;;;;17.67;1.80;;;;;;;9.55;100.00;100860.72;4950739;28;20030;-85
2023/12/28 08:21:06;;;;;;;12.32;2.70;;;;;;;9.61;100.00;100867.56;4953491;28;20035;-88
2023/12/28 08:23:32;;;;;;;12.20;1.95;;;;;;;9.52;100.00;100874.63;4959191;28;20015;-88
2023/12/28 08:25:57;;;;;;;13.27;1.60;;;;;;;9.54;100.00;100873.53;4941728;28;20410;-88
2023/12/28 08:28:23;;;;;;;5.57;1.27;;;;;;;9.54;100.00;100869.91;4956359;28;20034;-88
2023/12/28 08:30:49;;;;;;;10.48;1.52;;;;;;;9.61;100.00;100875.78;4941778;29;20027;-88
2023/12/28 08:33:15;;;;;;;15.07;1.80;;;;;;;9.61;100.00;100867.56;4946869;29;20512;-89
2023/12/28 08:35:40;;;;;;;13.60;2.30;;;;;;;9.61;100.00;100864.84;4930977;29;20028;-89
2023/12/28 08:38:06;;;;;;;13.60;2.20;;;;;;;9.66;100.00;100865.41;4980678;28;20022;-88
2023/12/28 08:40:32;;;;;;;20.67;2.17;;;;;;;9.65;100.00;100864.50;4947273;29;20117;-88
2023/12/28 08:42:57;;;;;;;20.05;1.83;;;;;;;9.72;100.00;100867.66;4962225;28;20047;-88
2023/12/28 08:45:23;;;;;;;17.30;2.13;;;;;;;9.71;100.00;100863.19;4994661;28;20038;-88
2023/12/28 08:47:48;;;;;;;14.30;2.17;;;;;;;9.74;100.00;100872.03;4972352;28;20135;-88
2023/12/28 08:50:14;;;;;;;15.20;2.00;;;;;;;9.75;100.00;100871.00;4955198;28;20031;-88
2023/12/28 08:52:40;;;;;;;11.60;2.17;;;;;;;9.79;100.00;100879.00;4974643;28;20030;-88
2023/12/28 08:55:06;;;;;;;16.48;2.25;;;;;;;9.78;100.00;100877.25;4973225;28;20539;-88
2023/12/28 08:57:31;;;;;;;27.58;2.40;;;;;;;9.77;100.00;100889.19;4965333;28;20039;-88
2023/12/28 08:59:59;;;;;;;23.05;2.47;;;;;;;9.83;100.00;100889.59;4978478;28;20039;-89
2023/12/28 09:02:27;;;;;;;14.05;2.25;;;;;;;9.89;100.00;100889.13;4972986;28;20031;-88
2023/12/28 09:04:53;;;;;;;23.65;2.58;;;;;;;9.89;100.00;100900.06;4984594;28;20065;-88
2023/12/28 09:07:19;;;;;;;14.95;1.98;;;;;;;9.87;100.00;100902.06;4989170;28;20114;-87
2023/12/28 09:09:45;;;;;;;15.00;2.53;;;;;;;9.88;100.00;100886.50;4979406;28;20129;-88
2023/12/28 09:12:11;;;;;;;12.35;2.53;;;;;;;9.89;100.00;100897.34;4961332;28;20185;-88
2023/12/28 09:14:36;;;;;;;17.92;2.45;;;;;;;9.91;100.00;100905.44;4992938;28;20480;-87
2023/12/28 09:17:01;;;;;;;13.45;1.67;;;;;;;9.90;100.00;100904.56;4960636;28;20031;-87
2023/12/28 09:19:27;;;;;;;15.00;2.50;;;;;;;9.88;100.00;100905.66;4955145;28;20038;-88
2023/12/28 09:21:52;;;;;;;13.98;1.90;;;;;;;9.88;100.00;100914.72;4977118;28;20031;-87
2023/12/28 09:24:18;;;;;;;11.93;1.73;;;;;;;9.86;100.00;100911.22;4939539;29;20086;-85
2023/12/28 09:26:44;;;;;;;10.55;1.98;;;;;;;9.89;100.00;100918.34;4973264;28;20059;-85
2023/12/28 09:29:09;;;;;;;10.82;2.15;;;;;;;9.90;100.00;100900.94;4975116;28;20397;-85
2023/12/28 09:31:35;;;;;;;22.08;2.17;;;;;;;9.90;100.00;100923.72;4991629;28;20118;-85
2023/12/28 09:34:00;;;;;;;16.25;1.35;;;;;;;9.94;100.00;100918.88;4964905;28;20149;-85
2023/12/28 09:36:26;;;;;;;20.70;2.47;;;;;;;9.92;100.00;100926.31;4989729;28;20398;-85
2023/12/28 09:38:51;;;;;;;18.80;2.97;;;;;;;9.89;100.00;100916.47;4956373;28;20035;-85
2023/12/28 09:41:21;;;;;;;17.58;2.45;;;;;;;9.93;100.00;100925.31;4941811;28;20034;-85
2023/12/28 09:43:54;;;;;;;19.90;2.25;;;;;;;10.02;100.00;100926.47;4973921;28;20118;-85
2023/12/28 09:46:20;;;;;;;10.82;1.98;;;;;;;10.06;100.00;100925.28;4967263;28;20081;-85
2023/12/28 09:48:46;;;;;;;18.75;1.90;;;;;;;10.04;100.00;100933.59;4973034;28;20037;-85
2023/12/28 09:51:12;;;;;;;18.05;2.42;;;;;;;10.01;100.00;100914.66;4953326;28;20035;-84
2023/12/28 09:53:38;;;;;;;18.60;2.22;;;;;;;10.13;100.00;100923.78;4970942;28;20508;-85
2023/12/28 09:56:05;;;;;;;14.82;2.20;;;;;;;10.17;100.00;100930.81;4955391;28;20049;-85
2023/12/28 09:58:35;;;;;;;10.88;1.75;;;;;;;10.18;100.00;100928.94;4961497;28;20562;-85
2023/12/28 10:01:01;;;;;;;16.65;1.83;;;;;;;10.21;100.00;100936.91;4970084;28;20033;-85
2023/12/28 10:03:26;;;;;;;14.63;2.13;;;;;;;10.23;100.00;100937.66;4967079;28;20054;-85
2023/12/28 10:05:52;;;;;;;20.48;1.92;;;;;;;10.21;100.00;100931.44;4990525;28;20027;-85
2023/12/28 10:08:17;;;;;;;10.38;1.50;;;;;;;10.22;100.00;100931.31;4972944;28;20196;-84
2023/12/28 10:10:50;;;;;;;11.32;1.83;;;;;;;10.25;100.00;100932.97;4937137;28;20062;-85
2023/12/28 10:13:16;;;;;;;9.75;1.70;;;;;;;10.19;100.00;100927.94;4970463;28;20031;-86
2023/12/28 10:15:43;;;;;;;13.02;1.90;;;;;;;10.25;100.00;100944.75;4951826;28;20027;-86
2023/12/28 10:18:09;;;;;;;17.17;1.95;;;;;;;10.28;100.00;100944.53;4962930;28;20110;-84
2023/12/28 10:20:34;;;;;;;17.30;1.73;;;;;;;10.33;100.00;100930.53;4973981;28;20336;-85
2023/12/28 10:23:03;;;;;;;14.30;1.75;;;;;;;10.34;100.00;100936.88;4973816;28;20018;-85
2023/12/28 10:25:31;;;;;;;12.25;1.52;;;;;;;10.35;100.00;100947.72;4973836;28;20034;-86
2023/12/28 10:27:57;;;;;;;13.00;1.70;;;;;;;10.40;100.00;100929.06;4990334;28;20019;-86
2023/12/28 10:30:22;;;;;;;15.25;2.10;;;;;;;10.47;100.00;100932.19;4973574;28;20034;-85
2023/12/28 10:32:48;;;;;;;20.67;2.70;;;;;;;10.55;100.00;100939.81;4939906;28;20026;-85
2023/12/28 10:35:13;;;;;;;18.58;2.00;;;;;;;10.57;100.00;100937.81;4990183;28;20081;-86
2023/12/28 10:37:43;;;;;;;11.45;1.58;;;;;;;10.58;100.00;100940.44;4981819;28;20022;-85
2023/12/28 10:40:16;;;;;;;14.13;1.60;;;;;;;10.63;100.00;100934.63;4969052;28;20034;-85
2023/12/28 10:43:04;;;;;;;17.00;2.67;;;;;;;10.61;100.00;100936.59;4985078;28;20150;-85
2023/12/28 10:45:33;;;;;;;19.27;2.40;;;;;;;10.62;100.00;100924.66;4969068;28;20050;-86
2023/12/28 10:48:12;;;;;;;19.48;1.73;;;;;;;10.66;100.00;100932.50;4979122;28;20122;-85
2023/12/28 10:50:45;;;;;;;14.98;1.90;;;;;;;10.59;100.00;100930.34;4964897;28;20130;-85
2023/12/28 10:53:24;;;;;;;15.60;1.63;;;;;;;10.63;100.00;100927.25;4976436;28;20023;-85
2023/12/28 10:56:14;;;;;;;15.20;2.00;;;;;;;10.59;100.00;100934.00;4988508;28;20023;-86
2023/12/28 10:58:39;;;;;;;14.27;1.67;;;;;;;10.68;100.00;100926.03;4971909;28;20027;-84
2023/12/28 11:01:10;;;;;;;16.00;2.00;;;;;;;10.70;100.00;100918.56;4988017;28;20038;-85
2023/12/28 11:03:37;;;;;;;14.32;2.00;;;;;;;10.69;100.00;100923.19;4980175;28;20114;-86
2023/12/28 11:06:05;;;;;;;19.38;2.40;;;;;;;10.73;100.00;100919.19;4955352;28;20114;-86
2023/12/28 11:08:32;;;;;;;19.08;2.40;;;;;;;10.81;100.00;100926.81;4971215;28;20089;-86
2023/12/28 11:11:01;;;;;;;15.70;1.98;;;;;;;10.84;100.00;100927.44;4967318;28;20500;-85
2023/12/28 11:13:30;;;;;;;20.35;3.00;;;;;;;10.90;100.00;100919.72;4986769;28;20031;-86
2023/12/28 11:15:56;;;;;;;22.42;2.88;;;;;;;10.93;100.00;100911.28;4973048;28;20132;-86
2023/12/28 11:18:23;;;;;;;18.90;2.33;;;;;;;10.89;100.00;100905.16;4966659;28;20491;-85